createdAt,value
2023-04-03T00:00:40.730Z,3.13
2023-04-03T00:03:08.865Z,1.30
2023-04-03T00:05:36.909Z,1.37
2023-04-03T00:08:05.811Z,1.40
2023-04-03T00:10:35.336Z,1.20
2023-04-03T00:13:03.625Z,1.33
2023-04-03T00:15:31.645Z,2.13
2023-04-03T00:17:59.680Z,2.97
2023-04-03T00:20:28.320Z,1.37
2023-04-03T00:22:56.615Z,1.20
2023-04-03T00:25:24.807Z,0.97
2023-04-03T00:27:54.194Z,1.00
2023-04-03T00:30:22.994Z,0.83
2023-04-03T00:32:51.176Z,2.90
2023-04-03T00:35:19.555Z,1.30
2023-04-03T00:37:47.696Z,2.03
2023-04-03T00:40:16.967Z,5.07
2023-04-03T00:42:45.588Z,0.90
2023-04-03T00:45:31.115Z,1.23
2023-04-03T00:48:01.927Z,1.83
2023-04-03T00:50:30.856Z,1.40
2023-04-03T00:52:59.264Z,0.80
2023-04-03T00:55:27.510Z,0.83
2023-04-03T00:57:55.764Z,0.73
2023-04-03T01:00:24.686Z,0.63
2023-04-03T01:02:53.410Z,46.57
2023-04-03T01:05:23.243Z,14.43
2023-04-03T01:07:53.567Z,4.10
2023-04-03T01:10:22.150Z,0.80
2023-04-03T01:12:51.729Z,1.30
2023-04-03T01:15:21.694Z,1.50
2023-04-03T01:17:50.827Z,0.73
2023-04-03T01:20:38.292Z,0.70
2023-04-03T01:23:14.870Z,0.63
2023-04-03T01:25:43.941Z,0.77
2023-04-03T01:28:13.640Z,1.77
2023-04-03T01:30:45.280Z,0.67
2023-04-03T01:33:15.080Z,0.67
2023-04-03T01:35:43.667Z,1.70
2023-04-03T01:38:11.749Z,1.00
2023-04-03T01:40:40.084Z,0.93
2023-04-03T01:43:08.234Z,2.63
2023-04-03T01:45:36.407Z,0.60
2023-04-03T01:48:04.828Z,1.80
2023-04-03T01:50:34.508Z,0.90
2023-04-03T01:53:02.616Z,0.70
2023-04-03T01:55:30.520Z,1.33
2023-04-03T01:57:58.502Z,0.60
2023-04-03T02:00:27.797Z,1.07
2023-04-03T02:02:55.759Z,2.33
2023-04-03T02:05:23.756Z,1.17
2023-04-03T02:07:53.134Z,0.70
2023-04-03T02:10:21.131Z,0.60
2023-04-03T02:12:49.043Z,1.33
2023-04-03T02:15:17.087Z,1.07
2023-04-03T02:17:45.090Z,0.60
2023-04-03T02:20:13.089Z,1.03
2023-04-03T02:22:41.181Z,1.47
2023-04-03T02:25:11.403Z,1.47
2023-04-03T02:27:39.297Z,0.80
2023-04-03T02:30:07.989Z,0.83
2023-04-03T02:32:35.946Z,0.70
2023-04-03T02:35:04.004Z,0.90
2023-04-03T02:37:32.522Z,1.87
2023-04-03T02:40:00.595Z,0.70
2023-04-03T02:42:30.029Z,0.70
2023-04-03T02:44:59.468Z,0.77
2023-04-03T02:47:28.789Z,1.23
2023-04-03T02:49:56.791Z,4.57
2023-04-03T02:52:24.716Z,0.83
2023-04-03T02:54:52.615Z,0.80
2023-04-03T02:57:20.980Z,1.07
2023-04-03T02:59:50.468Z,0.67
2023-04-03T03:02:18.419Z,0.80
2023-04-03T03:04:46.386Z,0.90
2023-04-03T03:07:14.374Z,1.03
2023-04-03T03:09:42.273Z,1.00
2023-04-03T03:12:10.244Z,4.23
2023-04-03T03:14:38.161Z,1.00
2023-04-03T03:17:07.547Z,0.90
2023-04-03T03:19:35.538Z,0.90
2023-04-03T03:22:03.536Z,1.00
2023-04-03T03:24:31.528Z,1.80
2023-04-03T03:26:59.527Z,1.50
2023-04-03T03:29:27.441Z,1.23
2023-04-03T03:31:55.389Z,1.37
2023-04-03T03:34:24.807Z,1.73
2023-04-03T03:36:52.738Z,1.53
2023-04-03T03:39:20.695Z,1.60
2023-04-03T03:41:50.798Z,1.60
2023-04-03T03:44:18.764Z,1.50
2023-04-03T03:46:46.721Z,1.53
2023-04-03T03:49:14.819Z,1.50
2023-04-03T03:51:44.153Z,1.50
2023-04-03T03:54:12.076Z,1.90
2023-04-03T03:56:40.092Z,2.17
2023-04-03T03:59:08.103Z,2.00
2023-04-03T04:01:36.121Z,1.97
2023-04-03T04:04:04.160Z,4.40
2023-04-03T04:06:32.218Z,4.60
2023-04-03T04:09:01.522Z,1.90
2023-04-03T04:11:29.496Z,4.87
2023-04-03T04:13:57.475Z,2.00
2023-04-03T04:16:25.470Z,3.43
2023-04-03T04:18:53.507Z,2.67
2023-04-03T04:21:21.429Z,1.90
2023-04-03T04:23:49.414Z,1.80
2023-04-03T04:26:18.766Z,2.33
2023-04-03T04:28:46.779Z,2.97
2023-04-03T04:31:14.766Z,2.60
2023-04-03T04:33:42.697Z,2.20
2023-04-03T04:36:10.839Z,3.97
2023-04-03T04:38:39.647Z,2.97
2023-04-03T04:41:07.630Z,2.63
2023-04-03T04:43:37.053Z,2.70
2023-04-03T04:46:05.879Z,3.23
2023-04-03T04:48:33.895Z,3.90
2023-04-03T04:51:01.819Z,3.90
2023-04-03T04:53:29.746Z,3.47
2023-04-03T04:55:57.718Z,3.00
2023-04-03T04:58:25.820Z,3.33
2023-04-03T05:01:01.952Z,3.93
2023-04-03T05:03:29.973Z,3.77
2023-04-03T05:05:58.014Z,3.20
2023-04-03T05:08:26.009Z,4.00
2023-04-03T05:10:55.543Z,3.27
2023-04-03T05:13:24.152Z,3.53
2023-04-03T05:15:52.138Z,3.83
2023-04-03T05:18:21.554Z,3.47
2023-04-03T05:20:50.586Z,3.23
2023-04-03T05:23:18.584Z,5.20
2023-04-03T05:25:48.072Z,4.47
2023-04-03T05:28:15.972Z,5.43
2023-04-03T05:30:44.009Z,5.67
2023-04-03T05:33:12.345Z,5.03
2023-04-03T05:35:42.822Z,5.77
2023-04-03T05:38:11.103Z,4.33
2023-04-03T05:40:39.406Z,4.77
2023-04-03T05:43:07.350Z,4.73
2023-04-03T05:45:35.566Z,5.53
2023-04-03T05:48:03.871Z,7.47
2023-04-03T05:50:32.429Z,7.97
2023-04-03T05:53:02.311Z,6.83
2023-04-03T05:55:30.287Z,7.90
2023-04-03T05:57:58.227Z,9.60
2023-04-03T06:00:26.432Z,10.70
2023-04-03T06:02:54.467Z,10.03
2023-04-03T06:05:22.950Z,10.53
2023-04-03T06:07:51.193Z,9.07
2023-04-03T06:10:21.422Z,10.67
2023-04-03T06:12:49.574Z,9.03
2023-04-03T06:15:18.561Z,7.47
2023-04-03T06:17:46.848Z,7.23
2023-04-03T06:20:15.050Z,9.07
2023-04-03T06:22:43.692Z,8.87
2023-04-03T06:25:12.069Z,6.57
2023-04-03T06:27:41.664Z,7.37
2023-04-03T06:30:10.175Z,9.07
2023-04-03T06:32:38.269Z,6.30
2023-04-03T06:35:07.820Z,8.53
2023-04-03T06:37:36.326Z,6.03
2023-04-03T06:40:05.730Z,6.33
2023-04-03T06:42:33.852Z,8.43
2023-04-03T06:45:03.339Z,13.60
2023-04-03T06:47:31.568Z,6.70
2023-04-03T06:49:59.945Z,7.77
2023-04-03T06:52:28.584Z,8.93
2023-04-03T06:54:58.865Z,8.90
2023-04-03T06:57:29.386Z,9.10
2023-04-03T06:59:57.731Z,7.13
2023-04-03T07:02:27.623Z,8.17
2023-04-03T07:04:56.278Z,9.37
2023-04-03T07:07:24.699Z,7.47
2023-04-03T07:09:52.857Z,5.10
2023-04-03T07:12:21.127Z,7.70
2023-04-03T07:14:49.220Z,6.37
2023-04-03T07:17:17.341Z,6.83
2023-04-03T07:19:46.911Z,6.97
2023-04-03T07:22:14.982Z,8.40
2023-04-03T07:24:43.030Z,7.67
2023-04-03T07:27:11.913Z,9.73
2023-04-03T07:29:39.980Z,9.60
2023-04-03T07:32:08.287Z,6.37
2023-04-03T07:34:36.409Z,10.07
2023-04-03T07:37:06.037Z,9.90
2023-04-03T07:39:34.174Z,8.37
2023-04-03T07:42:03.083Z,8.83
2023-04-03T07:44:31.221Z,10.77
2023-04-03T07:46:59.244Z,9.70
2023-04-03T07:49:27.320Z,9.30
2023-04-03T07:51:55.654Z,9.27
2023-04-03T07:54:25.328Z,9.10
2023-04-03T07:56:53.306Z,9.57
2023-04-03T07:59:23.477Z,12.70
2023-04-03T08:01:51.894Z,16.97
2023-04-03T08:04:20.101Z,7.67
2023-04-03T08:06:48.375Z,7.93
2023-04-03T08:09:17.123Z,8.83
2023-04-03T08:11:47.826Z,10.20
2023-04-03T08:14:19.822Z,10.53
2023-04-03T08:16:48.719Z,8.33
2023-04-03T08:19:25.383Z,8.03
2023-04-03T08:21:54.456Z,7.27
2023-04-03T08:24:22.486Z,7.93
2023-04-03T08:26:51.824Z,5.93
2023-04-03T08:29:19.890Z,7.27
2023-04-03T08:31:48.698Z,7.93
2023-04-03T08:34:16.943Z,6.57
2023-04-03T08:36:45.174Z,7.07
2023-04-03T08:39:13.553Z,7.40
2023-04-03T08:41:43.622Z,8.47
2023-04-03T08:44:20.098Z,6.20
2023-04-03T08:46:54.685Z,6.87
2023-04-03T08:49:25.399Z,6.97
2023-04-03T08:51:53.956Z,6.57
2023-04-03T08:54:34.004Z,7.47
2023-04-03T08:57:04.724Z,9.13
2023-04-03T08:59:36.214Z,8.67
2023-04-03T09:02:08.183Z,9.37
2023-04-03T09:04:36.309Z,8.23
2023-04-03T09:07:09.733Z,8.00
2023-04-03T09:09:42.150Z,9.37
2023-04-03T09:12:17.239Z,10.13
2023-04-03T09:14:50.008Z,6.97
2023-04-03T09:17:23.894Z,7.17
2023-04-03T09:19:54.360Z,6.47
2023-04-03T09:22:24.479Z,7.83
2023-04-03T09:24:54.841Z,5.97
2023-04-03T09:27:22.979Z,7.50
2023-04-03T09:30:02.989Z,8.60
2023-04-03T09:32:31.880Z,8.00
2023-04-03T09:35:06.659Z,12.00
2023-04-03T09:37:43.908Z,8.87
2023-04-03T09:40:36.722Z,8.93
2023-04-03T09:43:20.828Z,8.60
2023-04-03T09:45:51.102Z,8.50
2023-04-03T09:48:20.345Z,7.03
2023-04-03T09:50:56.853Z,6.77
2023-04-03T09:53:29.247Z,5.83
2023-04-03T09:55:57.368Z,8.60
2023-04-03T09:58:29.580Z,8.17
2023-04-03T10:01:03.926Z,8.50
2023-04-03T10:03:34.675Z,9.03
2023-04-03T10:06:02.770Z,7.73
2023-04-03T10:08:31.843Z,7.83
2023-04-03T10:11:14.005Z,7.63
2023-04-03T10:14:00.734Z,8.50
2023-04-03T10:16:31.736Z,9.03
2023-04-03T10:19:14.503Z,9.00
2023-04-03T10:21:47.258Z,7.87
2023-04-03T10:24:17.120Z,8.20
2023-04-03T10:26:48.104Z,7.80
2023-04-03T10:29:22.702Z,7.07
2023-04-03T10:31:55.566Z,5.67
2023-04-03T10:34:25.457Z,6.40
2023-04-03T10:36:56.473Z,7.10
2023-04-03T10:39:29.819Z,7.47
2023-04-03T10:42:15.993Z,4.67
2023-04-03T10:44:53.409Z,5.37
2023-04-03T10:47:24.192Z,5.70
2023-04-03T10:49:59.773Z,6.87
2023-04-03T10:52:33.904Z,6.17
2023-04-03T10:55:05.183Z,9.80
2023-04-03T10:57:33.587Z,5.20
2023-04-03T11:00:03.750Z,6.53
2023-04-03T11:02:35.015Z,7.40
2023-04-03T11:05:04.413Z,6.20
2023-04-03T11:07:35.989Z,5.80
2023-04-03T11:10:05.912Z,5.40
2023-04-03T11:12:38.485Z,6.00
2023-04-03T11:15:07.252Z,5.80
2023-04-03T11:17:41.064Z,6.50
2023-04-03T11:20:12.991Z,5.43
2023-04-03T11:22:43.303Z,4.83
2023-04-03T11:25:21.028Z,9.17
2023-04-03T11:27:52.000Z,5.00
2023-04-03T11:30:22.954Z,5.10
2023-04-03T11:33:11.491Z,5.53
2023-04-03T11:35:44.741Z,5.50
2023-04-03T11:38:17.084Z,5.97
2023-04-03T11:40:46.581Z,4.67
2023-04-03T11:43:23.305Z,4.57
2023-04-03T11:46:00.039Z,5.40
2023-04-03T11:48:51.225Z,5.83
2023-04-03T11:51:52.359Z,6.23
2023-04-03T11:54:44.867Z,4.20
2023-04-03T11:57:32.198Z,4.97
2023-04-03T12:00:01.873Z,4.27
2023-04-03T12:05:27.326Z,5.73
2023-04-03T12:08:10.135Z,4.53
2023-04-03T12:10:38.029Z,3.57
2023-04-03T12:13:16.703Z,5.97
2023-04-03T12:15:52.561Z,4.17
2023-04-03T12:18:51.624Z,5.87
2023-04-03T12:21:20.144Z,7.33
2023-04-03T12:24:05.125Z,3.43
2023-04-03T12:26:42.138Z,3.63
2023-04-03T12:29:18.579Z,4.33
2023-04-03T12:31:55.040Z,4.23
2023-04-03T12:34:29.282Z,4.40
2023-04-03T12:37:02.522Z,4.43
2023-04-03T12:39:45.707Z,3.77
2023-04-03T12:42:26.163Z,3.73
2023-04-03T12:45:00.385Z,3.90
2023-04-03T12:47:34.163Z,4.97
2023-04-03T12:50:04.041Z,5.57
2023-04-03T12:52:34.787Z,3.90
2023-04-03T12:55:05.350Z,3.77
2023-04-03T12:57:33.751Z,3.77
2023-04-03T13:00:01.891Z,3.53
2023-04-03T13:02:32.219Z,4.33
2023-04-03T13:05:01.776Z,4.80
2023-04-03T13:07:33.245Z,4.23
2023-04-03T13:10:02.324Z,2.80
2023-04-03T13:12:31.914Z,3.40
2023-04-03T13:15:01.521Z,4.43
2023-04-03T13:17:29.952Z,3.20
2023-04-03T13:20:11.657Z,3.07
2023-04-03T13:22:44.806Z,4.23
2023-04-03T13:25:15.283Z,2.67
2023-04-03T13:27:45.269Z,3.50
2023-04-03T13:30:30.601Z,5.13
2023-04-03T13:33:00.141Z,2.97
2023-04-03T13:35:31.578Z,2.80
2023-04-03T13:38:02.152Z,3.47
2023-04-03T13:40:35.153Z,7.20
2023-04-03T13:43:19.532Z,2.73
2023-04-03T13:45:56.633Z,2.70
2023-04-03T13:48:25.077Z,2.90
2023-04-03T13:50:56.296Z,2.60
2023-04-03T13:53:24.622Z,2.77
2023-04-03T13:56:00.577Z,4.77
2023-04-03T13:58:29.533Z,3.40
2023-04-03T14:00:58.340Z,3.53
2023-04-03T14:03:27.304Z,3.87
2023-04-03T14:05:56.722Z,2.60
2023-04-03T14:08:39.693Z,2.53
2023-04-03T14:11:13.921Z,2.93
2023-04-03T14:13:41.924Z,2.77
2023-04-03T14:16:15.891Z,4.00
2023-04-03T14:18:44.535Z,3.00
2023-04-03T14:21:15.740Z,2.60
2023-04-03T14:23:43.753Z,4.77
2023-04-03T14:26:14.015Z,3.13
2023-04-03T14:28:43.987Z,3.37
2023-04-03T14:31:13.325Z,4.10
2023-04-03T14:33:41.279Z,2.63
2023-04-03T14:36:14.816Z,2.53
2023-04-03T14:38:43.299Z,4.43
2023-04-03T14:41:16.492Z,2.90
2023-04-03T14:43:45.707Z,3.03
2023-04-03T14:46:15.333Z,2.27
2023-04-03T14:48:43.420Z,2.30
2023-04-03T14:51:12.970Z,2.80
2023-04-03T14:53:43.169Z,2.73
2023-04-03T14:56:15.371Z,2.53
2023-04-03T14:58:43.371Z,2.20
2023-04-03T15:01:13.010Z,2.97
2023-04-03T15:03:41.174Z,2.40
2023-04-03T15:06:11.146Z,2.40
2023-04-03T15:08:39.114Z,2.57
2023-04-03T15:11:08.567Z,2.47
2023-04-03T15:13:36.571Z,3.07
2023-04-03T15:16:04.792Z,2.80
2023-04-03T15:18:35.093Z,2.23
2023-04-03T15:21:03.052Z,4.23
2023-04-03T15:23:31.199Z,2.30
2023-04-03T15:25:59.705Z,4.00
2023-04-03T15:28:30.609Z,3.27
2023-04-03T15:30:58.738Z,2.33
2023-04-03T15:33:26.710Z,3.17
2023-04-03T15:36:02.661Z,3.00
2023-04-03T15:38:35.835Z,2.67
2023-04-03T15:41:03.882Z,2.53
2023-04-03T15:43:34.813Z,1.87
2023-04-03T15:46:03.252Z,2.27
2023-04-03T15:48:32.010Z,3.37
2023-04-03T15:51:00.088Z,2.10
2023-04-03T15:53:28.179Z,3.20
2023-04-03T15:55:56.299Z,2.07
2023-04-03T15:58:24.237Z,2.47
2023-04-03T16:00:53.662Z,2.67
2023-04-03T16:03:23.210Z,2.13
2023-04-03T16:05:51.717Z,2.00
2023-04-03T16:08:19.977Z,3.40
2023-04-03T16:10:48.502Z,2.10
2023-04-03T16:13:16.956Z,2.10
2023-04-03T16:15:45.168Z,3.63
2023-04-03T16:18:15.127Z,2.00
2023-04-03T16:20:44.771Z,2.40
2023-04-03T16:23:13.526Z,2.13
2023-04-03T16:25:41.730Z,2.67
2023-04-03T16:28:09.827Z,3.60
2023-04-03T16:30:37.757Z,2.30
2023-04-03T16:33:05.943Z,9.37
2023-04-03T16:35:35.412Z,1.93
2023-04-03T16:38:03.429Z,2.13
2023-04-03T16:40:31.571Z,2.90
2023-04-03T16:42:59.513Z,2.70
2023-04-03T16:45:27.406Z,2.47
2023-04-03T16:47:55.415Z,2.00
2023-04-03T16:50:23.453Z,1.93
2023-04-03T16:52:52.898Z,1.90
2023-04-03T16:55:21.764Z,2.40
2023-04-03T16:57:49.766Z,3.17
2023-04-03T17:00:18.089Z,2.20
2023-04-03T17:02:46.080Z,2.43
2023-04-03T17:05:14.001Z,4.30
2023-04-03T17:07:41.978Z,2.33
2023-04-03T17:10:12.537Z,2.43
2023-04-03T17:12:40.480Z,5.13
2023-04-03T17:15:08.933Z,2.70
2023-04-03T17:17:37.021Z,2.57
2023-04-03T17:20:05.381Z,2.27
2023-04-03T17:22:33.750Z,2.40
2023-04-03T17:25:01.730Z,1.80
2023-04-03T17:27:31.196Z,2.27
2023-04-03T17:29:59.937Z,2.33
2023-04-03T17:32:27.917Z,1.90
2023-04-03T17:34:55.930Z,2.33
2023-04-03T17:37:23.973Z,3.30
2023-04-03T17:39:51.956Z,2.20
2023-04-03T17:42:19.858Z,2.23
2023-04-03T17:44:49.298Z,2.23
2023-04-03T17:47:17.593Z,3.03
2023-04-03T17:49:45.664Z,2.07
2023-04-03T17:52:13.952Z,2.57
2023-04-03T17:54:41.996Z,3.43
2023-04-03T17:57:10.186Z,2.70
2023-04-03T17:59:38.267Z,3.70
2023-04-03T18:02:07.923Z,2.57
2023-04-03T18:04:36.479Z,2.40
2023-04-03T18:07:05.145Z,2.40
2023-04-03T18:09:34.365Z,5.53
2023-04-03T18:12:03.688Z,2.23
2023-04-03T18:14:31.979Z,2.50
2023-04-03T18:16:59.891Z,2.77
2023-04-03T18:19:30.064Z,2.67
2023-04-03T18:21:59.032Z,2.83
2023-04-03T18:24:27.646Z,3.83
2023-04-03T18:26:58.063Z,2.70
2023-04-03T18:29:26.723Z,2.27
2023-04-03T18:31:56.066Z,4.17
2023-04-03T18:34:24.084Z,3.67
2023-04-03T18:36:53.692Z,2.77
2023-04-03T18:39:23.352Z,2.93
2023-04-03T18:41:52.941Z,4.17
2023-04-03T18:44:22.773Z,3.83
2023-04-03T18:46:50.863Z,2.90
2023-04-03T18:49:18.942Z,2.53
2023-04-03T18:51:47.130Z,3.23
2023-04-03T18:54:16.540Z,2.83
2023-04-03T18:56:45.301Z,3.13
2023-04-03T18:59:13.252Z,3.00
2023-04-03T19:01:41.496Z,3.30
2023-04-03T19:04:09.500Z,2.63
2023-04-03T19:06:38.404Z,2.37
2023-04-03T19:09:07.394Z,2.37
2023-04-03T19:11:37.244Z,6.50
2023-04-03T19:14:16.068Z,2.80
2023-04-03T19:16:45.017Z,3.47
2023-04-03T19:19:13.131Z,4.30
2023-04-03T19:21:42.302Z,2.13
2023-04-03T19:24:10.748Z,3.00
2023-04-03T19:26:40.319Z,4.17
2023-04-03T19:29:08.659Z,2.60
2023-04-03T19:31:37.392Z,3.63
2023-04-03T19:34:06.400Z,2.83
2023-04-03T19:36:35.209Z,2.80
2023-04-03T19:39:03.285Z,2.33
2023-04-03T19:41:32.607Z,6.70
2023-04-03T19:44:02.247Z,3.10
2023-04-03T19:46:31.118Z,2.60
2023-04-03T19:48:59.170Z,3.50
2023-04-03T19:51:27.214Z,2.80
2023-04-03T19:53:55.145Z,3.13
2023-04-03T19:56:23.687Z,2.80
2023-04-03T19:58:54.328Z,3.33
2023-04-03T20:01:24.920Z,2.70
2023-04-03T20:03:53.032Z,2.30
2023-04-03T20:06:21.814Z,2.60
2023-04-03T20:08:50.943Z,2.50
2023-04-03T20:11:19.135Z,2.40
2023-04-03T20:13:49.663Z,3.27
2023-04-03T20:16:17.951Z,2.40
2023-04-03T20:18:48.215Z,2.50
2023-04-03T20:21:18.879Z,4.80
2023-04-03T20:23:47.041Z,3.27
2023-04-03T20:26:23.292Z,2.87
2023-04-03T20:28:51.514Z,2.97
2023-04-03T20:31:19.593Z,3.00
2023-04-03T20:33:49.084Z,2.40
2023-04-03T20:36:17.523Z,2.27
2023-04-03T20:38:45.647Z,2.33
2023-04-03T20:41:13.748Z,2.57
2023-04-03T20:43:42.969Z,2.40
2023-04-03T20:46:14.298Z,2.53
2023-04-03T20:48:42.333Z,2.20
2023-04-03T20:51:12.552Z,2.40
2023-04-03T20:53:40.545Z,2.30
2023-04-03T20:56:09.217Z,2.00
2023-04-03T20:58:38.478Z,4.93
2023-04-03T21:01:14.266Z,2.00
2023-04-03T21:03:42.280Z,2.10
2023-04-03T21:06:28.861Z,2.00
2023-04-03T21:09:15.256Z,2.50
2023-04-03T21:12:02.012Z,1.80
2023-04-03T21:14:49.203Z,2.43
2023-04-03T21:17:17.378Z,3.27
2023-04-03T21:19:47.158Z,2.90
2023-04-03T21:22:16.431Z,7.57
2023-04-03T21:24:44.788Z,2.43
2023-04-03T21:27:12.740Z,2.40
2023-04-03T21:29:40.686Z,2.07
2023-04-03T21:32:08.738Z,4.23
2023-04-03T21:34:36.631Z,3.63
2023-04-03T21:37:06.509Z,3.17
2023-04-03T21:39:34.708Z,2.10
2023-04-03T21:42:02.662Z,2.83
2023-04-03T21:44:30.639Z,2.57
2023-04-03T21:46:58.713Z,2.60
2023-04-03T21:49:27.363Z,2.40
2023-04-03T21:51:55.427Z,2.93
2023-04-03T21:54:25.705Z,2.80
2023-04-03T21:56:53.660Z,2.70
2023-04-03T21:59:21.709Z,2.63
2023-04-03T22:01:49.803Z,2.10
2023-04-03T22:04:17.800Z,2.57
2023-04-03T22:06:46.080Z,3.13
2023-04-03T22:09:14.116Z,3.63
2023-04-03T22:11:46.190Z,2.40
2023-04-03T22:14:14.313Z,2.67
2023-04-03T22:16:42.258Z,2.63
2023-04-03T22:19:10.268Z,3.13
2023-04-03T22:21:38.168Z,2.30
2023-04-03T22:24:06.322Z,2.63
2023-04-03T22:26:34.626Z,2.83
2023-04-03T22:29:04.303Z,3.33
2023-04-03T22:31:32.423Z,3.13
2023-04-03T22:34:04.207Z,2.07
2023-04-03T22:36:32.306Z,2.60
2023-04-03T22:39:00.342Z,3.67
2023-04-03T22:41:28.277Z,3.83
2023-04-03T22:43:56.546Z,3.87
2023-04-03T22:46:26.748Z,2.67
2023-04-03T22:48:54.654Z,3.13
2023-04-03T22:51:22.734Z,3.67
2023-04-03T22:53:50.797Z,4.23
2023-04-03T22:56:18.928Z,2.57
2023-04-03T22:58:48.235Z,2.30
2023-04-03T23:01:16.304Z,5.47
2023-04-03T23:03:45.838Z,2.43
2023-04-03T23:06:14.282Z,5.77
2023-04-03T23:08:42.677Z,2.30
2023-04-03T23:11:10.876Z,2.30
2023-04-03T23:13:38.767Z,2.87
2023-04-03T23:16:06.963Z,3.70
2023-04-03T23:18:35.058Z,2.77
2023-04-03T23:21:04.795Z,3.70
2023-04-03T23:23:32.832Z,2.23
2023-04-03T23:26:01.802Z,2.50
2023-04-03T23:28:30.322Z,2.40
2023-04-03T23:30:59.398Z,3.03
2023-04-03T23:33:27.392Z,2.73
2023-04-03T23:35:55.378Z,2.70
2023-04-03T23:38:24.758Z,2.47
2023-04-03T23:40:52.759Z,3.67
2023-04-03T23:43:21.009Z,2.37
2023-04-03T23:45:49.049Z,2.70
2023-04-03T23:48:17.068Z,2.80
2023-04-03T23:50:45.138Z,2.43
2023-04-03T23:53:13.733Z,3.50
2023-04-03T23:55:43.094Z,3.23
2023-04-03T23:58:11.092Z,4.40
